sensor_id;sensor_type;location;lat;lon;timestamp;P1;durP1;ratioP1;P2;durP2;ratioP2
29380;SDS011;16364;52.490;13.326;2022-12-18T00:00:20;27.57;;;12.47;;
29380;SDS011;16364;52.490;13.326;2022-12-18T00:02:45;37.00;;;14.23;;
29380;SDS011;16364;52.490;13.326;2022-12-18T00:05:10;27.87;;;11.60;;
29380;SDS011;16364;52.490;13.326;2022-12-18T00:07:36;32.53;;;11.93;;
29380;SDS011;16364;52.490;13.326;2022-12-18T00:10:01;26.60;;;14.00;;
29380;SDS011;16364;52.490;13.326;2022-12-18T00:12:27;35.03;;;13.27;;
29380;SDS011;16364;52.490;13.326;2022-12-18T00:14:52;40.17;;;15.87;;
29380;SDS011;16364;52.490;13.326;2022-12-18T00:17:17;38.10;;;14.60;;
29380;SDS011;16364;52.490;13.326;2022-12-18T00:19:42;37.50;;;15.00;;
29380;SDS011;16364;52.490;13.326;2022-12-18T00:22:08;29.30;;;13.00;;
29380;SDS011;16364;52.490;13.326;2022-12-18T00:24:33;33.50;;;11.90;;
29380;SDS011;16364;52.490;13.326;2022-12-18T00:26:58;37.70;;;14.87;;
29380;SDS011;16364;52.490;13.326;2022-12-18T00:29:23;32.97;;;15.57;;
29380;SDS011;16364;52.490;13.326;2022-12-18T00:31:49;40.80;;;15.13;;
29380;SDS011;16364;52.490;13.326;2022-12-18T00:34:14;34.53;;;14.40;;
29380;SDS011;16364;52.490;13.326;2022-12-18T00:36:39;39.97;;;14.37;;
29380;SDS011;16364;52.490;13.326;2022-12-18T00:39:05;38.10;;;15.37;;
29380;SDS011;16364;52.490;13.326;2022-12-18T00:41:31;39.57;;;15.30;;
29380;SDS011;16364;52.490;13.326;2022-12-18T00:44:15;34.37;;;12.37;;
29380;SDS011;16364;52.490;13.326;2022-12-18T00:46:41;26.63;;;12.80;;
29380;SDS011;16364;52.490;13.326;2022-12-18T00:49:07;35.60;;;13.30;;
29380;SDS011;16364;52.490;13.326;2022-12-18T00:51:32;36.90;;;13.73;;
29380;SDS011;16364;52.490;13.326;2022-12-18T00:53:57;35.37;;;13.23;;
29380;SDS011;16364;52.490;13.326;2022-12-18T00:56:23;32.30;;;14.33;;
29380;SDS011;16364;52.490;13.326;2022-12-18T00:58:48;37.07;;;15.47;;
29380;SDS011;16364;52.490;13.326;2022-12-18T01:01:14;33.50;;;14.13;;
29380;SDS011;16364;52.490;13.326;2022-12-18T01:03:39;33.50;;;14.23;;
29380;SDS011;16364;52.490;13.326;2022-12-18T01:06:05;31.33;;;12.40;;
29380;SDS011;16364;52.490;13.326;2022-12-18T01:08:30;47.03;;;16.00;;
29380;SDS011;16364;52.490;13.326;2022-12-18T01:10:55;38.20;;;16.03;;
29380;SDS011;16364;52.490;13.326;2022-12-18T01:13:21;42.60;;;14.83;;
29380;SDS011;16364;52.490;13.326;2022-12-18T01:15:49;40.23;;;16.37;;
29380;SDS011;16364;52.490;13.326;2022-12-18T01:18:14;41.40;;;14.90;;
29380;SDS011;16364;52.490;13.326;2022-12-18T01:20:40;35.33;;;15.93;;
29380;SDS011;16364;52.490;13.326;2022-12-18T01:23:05;43.60;;;18.00;;
29380;SDS011;16364;52.490;13.326;2022-12-18T01:25:30;43.73;;;14.20;;
29380;SDS011;16364;52.490;13.326;2022-12-18T01:27:55;42.90;;;17.07;;
29380;SDS011;16364;52.490;13.326;2022-12-18T01:30:21;40.90;;;17.00;;
29380;SDS011;16364;52.490;13.326;2022-12-18T01:32:46;33.10;;;15.20;;
29380;SDS011;16364;52.490;13.326;2022-12-18T01:35:11;43.37;;;16.20;;
29380;SDS011;16364;52.490;13.326;2022-12-18T01:37:36;37.50;;;17.73;;
29380;SDS011;16364;52.490;13.326;2022-12-18T01:40:02;42.60;;;16.27;;
29380;SDS011;16364;52.490;13.326;2022-12-18T01:42:27;47.70;;;16.17;;
29380;SDS011;16364;52.490;13.326;2022-12-18T01:49:49;38.37;;;14.90;;
29380;SDS011;16364;52.490;13.326;2022-12-18T01:52:14;39.53;;;18.60;;
29380;SDS011;16364;52.490;13.326;2022-12-18T01:54:40;37.00;;;14.60;;
29380;SDS011;16364;52.490;13.326;2022-12-18T01:57:05;38.03;;;14.97;;
29380;SDS011;16364;52.490;13.326;2022-12-18T01:59:31;33.23;;;13.67;;
29380;SDS011;16364;52.490;13.326;2022-12-18T02:01:57;37.77;;;14.83;;
29380;SDS011;16364;52.490;13.326;2022-12-18T02:04:23;41.37;;;15.70;;
29380;SDS011;16364;52.490;13.326;2022-12-18T02:07:12;33.73;;;14.30;;
29380;SDS011;16364;52.490;13.326;2022-12-18T02:09:36;37.07;;;14.70;;
29380;SDS011;16364;52.490;13.326;2022-12-18T02:12:13;37.00;;;14.10;;
29380;SDS011;16364;52.490;13.326;2022-12-18T02:27:11;34.97;;;16.43;;
29380;SDS011;16364;52.490;13.326;2022-12-18T02:29:38;33.83;;;13.50;;
29380;SDS011;16364;52.490;13.326;2022-12-18T02:32:05;34.50;;;13.47;;
29380;SDS011;16364;52.490;13.326;2022-12-18T02:34:34;33.77;;;13.33;;
29380;SDS011;16364;52.490;13.326;2022-12-18T02:37:01;40.70;;;13.27;;
29380;SDS011;16364;52.490;13.326;2022-12-18T02:39:27;34.60;;;12.57;;
29380;SDS011;16364;52.490;13.326;2022-12-18T02:41:54;28.70;;;12.77;;
29380;SDS011;16364;52.490;13.326;2022-12-18T02:44:19;32.90;;;11.97;;
29380;SDS011;16364;52.490;13.326;2022-12-18T02:46:49;37.83;;;14.30;;
29380;SDS011;16364;52.490;13.326;2022-12-18T02:51:58;30.77;;;13.27;;
29380;SDS011;16364;52.490;13.326;2022-12-18T02:56:54;34.97;;;13.83;;
29380;SDS011;16364;52.490;13.326;2022-12-18T02:59:26;31.80;;;13.17;;
29380;SDS011;16364;52.490;13.326;2022-12-18T03:01:59;38.20;;;12.50;;
29380;SDS011;16364;52.490;13.326;2022-12-18T03:04:30;30.17;;;14.17;;
29380;SDS011;16364;52.490;13.326;2022-12-18T03:06:58;38.83;;;14.80;;
29380;SDS011;16364;52.490;13.326;2022-12-18T03:09:26;35.93;;;14.77;;
29380;SDS011;16364;52.490;13.326;2022-12-18T03:11:54;41.83;;;14.60;;
29380;SDS011;16364;52.490;13.326;2022-12-18T03:14:39;40.53;;;15.77;;
29380;SDS011;16364;52.490;13.326;2022-12-18T03:17:05;38.97;;;14.23;;
29380;SDS011;16364;52.490;13.326;2022-12-18T03:19:32;33.33;;;15.20;;
29380;SDS011;16364;52.490;13.326;2022-12-18T03:22:00;35.23;;;13.30;;
29380;SDS011;16364;52.490;13.326;2022-12-18T03:24:27;37.00;;;15.50;;
29380;SDS011;16364;52.490;13.326;2022-12-18T03:26:53;35.00;;;14.03;;
29380;SDS011;16364;52.490;13.326;2022-12-18T03:29:25;48.10;;;16.43;;
29380;SDS011;16364;52.490;13.326;2022-12-18T03:31:53;37.97;;;14.70;;
29380;SDS011;16364;52.490;13.326;2022-12-18T03:34:21;43.97;;;13.67;;
29380;SDS011;16364;52.490;13.326;2022-12-18T03:36:48;33.93;;;14.33;;
29380;SDS011;16364;52.490;13.326;2022-12-18T03:39:13;37.03;;;15.67;;
29380;SDS011;16364;52.490;13.326;2022-12-18T03:44:11;34.77;;;13.50;;
29380;SDS011;16364;52.490;13.326;2022-12-18T03:49:14;39.20;;;16.33;;
29380;SDS011;16364;52.490;13.326;2022-12-18T03:54:09;31.57;;;13.93;;
29380;SDS011;16364;52.490;13.326;2022-12-18T03:56:37;44.60;;;14.20;;
29380;SDS011;16364;52.490;13.326;2022-12-18T03:59:04;31.67;;;14.50;;
29380;SDS011;16364;52.490;13.326;2022-12-18T04:01:32;47.83;;;16.23;;
29380;SDS011;16364;52.490;13.326;2022-12-18T04:03:59;39.13;;;15.87;;
29380;SDS011;16364;52.490;13.326;2022-12-18T04:06:25;40.07;;;16.10;;
29380;SDS011;16364;52.490;13.326;2022-12-18T04:08:50;47.57;;;15.47;;
29380;SDS011;16364;52.490;13.326;2022-12-18T04:11:16;34.87;;;13.33;;
29380;SDS011;16364;52.490;13.326;2022-12-18T04:13:41;39.97;;;15.50;;
29380;SDS011;16364;52.490;13.326;2022-12-18T04:16:07;41.93;;;15.97;;
29380;SDS011;16364;52.490;13.326;2022-12-18T04:18:32;45.97;;;16.43;;
29380;SDS011;16364;52.490;13.326;2022-12-18T04:20:57;45.20;;;18.13;;
29380;SDS011;16364;52.490;13.326;2022-12-18T04:23:23;57.40;;;18.40;;
29380;SDS011;16364;52.490;13.326;2022-12-18T04:25:48;43.43;;;16.53;;
29380;SDS011;16364;52.490;13.326;2022-12-18T04:28:13;54.77;;;18.03;;
29380;SDS011;16364;52.490;13.326;2022-12-18T04:30:39;55.90;;;18.60;;
29380;SDS011;16364;52.490;13.326;2022-12-18T04:33:07;48.00;;;16.30;;
29380;SDS011;16364;52.490;13.326;2022-12-18T04:35:33;41.97;;;16.70;;
29380;SDS011;16364;52.490;13.326;2022-12-18T04:37:58;43.10;;;17.80;;
29380;SDS011;16364;52.490;13.326;2022-12-18T04:40:23;58.23;;;20.10;;
29380;SDS011;16364;52.490;13.326;2022-12-18T04:42:48;44.90;;;18.93;;
29380;SDS011;16364;52.490;13.326;2022-12-18T04:45:13;39.97;;;17.00;;
29380;SDS011;16364;52.490;13.326;2022-12-18T04:47:39;51.30;;;19.10;;
29380;SDS011;16364;52.490;13.326;2022-12-18T04:50:04;62.27;;;21.43;;
29380;SDS011;16364;52.490;13.326;2022-12-18T04:52:29;59.73;;;19.53;;
29380;SDS011;16364;52.490;13.326;2022-12-18T04:54:55;62.00;;;21.10;;
29380;SDS011;16364;52.490;13.326;2022-12-18T04:57:20;52.83;;;22.37;;
29380;SDS011;16364;52.490;13.326;2022-12-18T04:59:45;43.10;;;17.03;;
29380;SDS011;16364;52.490;13.326;2022-12-18T05:02:10;57.33;;;20.00;;
29380;SDS011;16364;52.490;13.326;2022-12-18T05:04:36;57.00;;;19.43;;
29380;SDS011;16364;52.490;13.326;2022-12-18T05:07:01;68.23;;;21.80;;
29380;SDS011;16364;52.490;13.326;2022-12-18T05:09:26;56.83;;;21.00;;
29380;SDS011;16364;52.490;13.326;2022-12-18T05:11:52;67.43;;;23.97;;
29380;SDS011;16364;52.490;13.326;2022-12-18T05:14:17;56.10;;;21.30;;
29380;SDS011;16364;52.490;13.326;2022-12-18T05:16:42;60.57;;;20.67;;
29380;SDS011;16364;52.490;13.326;2022-12-18T05:19:07;52.17;;;19.77;;
29380;SDS011;16364;52.490;13.326;2022-12-18T05:21:33;56.67;;;21.50;;
29380;SDS011;16364;52.490;13.326;2022-12-18T05:23:58;67.03;;;23.10;;
29380;SDS011;16364;52.490;13.326;2022-12-18T05:26:23;67.13;;;23.07;;
29380;SDS011;16364;52.490;13.326;2022-12-18T05:28:48;60.93;;;22.63;;
29380;SDS011;16364;52.490;13.326;2022-12-18T05:31:14;58.83;;;21.67;;
29380;SDS011;16364;52.490;13.326;2022-12-18T05:33:39;64.63;;;20.17;;
29380;SDS011;16364;52.490;13.326;2022-12-18T05:36:05;66.43;;;21.80;;
29380;SDS011;16364;52.490;13.326;2022-12-18T05:38:32;63.90;;;22.20;;
29380;SDS011;16364;52.490;13.326;2022-12-18T05:40:57;69.90;;;23.77;;
29380;SDS011;16364;52.490;13.326;2022-12-18T05:43:23;73.03;;;24.77;;
29380;SDS011;16364;52.490;13.326;2022-12-18T05:45:49;81.53;;;25.53;;
29380;SDS011;16364;52.490;13.326;2022-12-18T05:48:15;68.40;;;20.80;;
29380;SDS011;16364;52.490;13.326;2022-12-18T05:50:41;52.93;;;22.20;;
29380;SDS011;16364;52.490;13.326;2022-12-18T05:53:06;65.53;;;22.40;;
29380;SDS011;16364;52.490;13.326;2022-12-18T05:55:35;63.47;;;22.87;;
29380;SDS011;16364;52.490;13.326;2022-12-18T05:58:01;56.77;;;18.13;;
29380;SDS011;16364;52.490;13.326;2022-12-18T06:00:27;59.70;;;20.00;;
29380;SDS011;16364;52.490;13.326;2022-12-18T06:02:52;64.67;;;22.33;;
29380;SDS011;16364;52.490;13.326;2022-12-18T06:05:17;62.60;;;21.50;;
29380;SDS011;16364;52.490;13.326;2022-12-18T06:07:43;62.90;;;22.70;;
29380;SDS011;16364;52.490;13.326;2022-12-18T06:10:08;58.93;;;21.50;;
29380;SDS011;16364;52.490;13.326;2022-12-18T06:12:33;55.70;;;20.67;;
29380;SDS011;16364;52.490;13.326;2022-12-18T06:14:59;62.03;;;23.37;;
29380;SDS011;16364;52.490;13.326;2022-12-18T06:17:27;54.33;;;20.80;;
29380;SDS011;16364;52.490;13.326;2022-12-18T06:19:53;53.63;;;18.43;;
29380;SDS011;16364;52.490;13.326;2022-12-18T06:22:19;48.73;;;20.40;;
29380;SDS011;16364;52.490;13.326;2022-12-18T06:24:44;56.13;;;19.93;;
29380;SDS011;16364;52.490;13.326;2022-12-18T06:27:10;67.83;;;20.43;;
29380;SDS011;16364;52.490;13.326;2022-12-18T06:29:35;69.03;;;22.47;;
29380;SDS011;16364;52.490;13.326;2022-12-18T06:32:00;62.93;;;21.20;;
29380;SDS011;16364;52.490;13.326;2022-12-18T06:34:25;70.13;;;22.53;;
29380;SDS011;16364;52.490;13.326;2022-12-18T06:36:51;70.87;;;25.50;;
29380;SDS011;16364;52.490;13.326;2022-12-18T06:39:16;59.23;;;22.67;;
29380;SDS011;16364;52.490;13.326;2022-12-18T06:41:41;60.37;;;23.33;;
29380;SDS011;16364;52.490;13.326;2022-12-18T06:44:06;59.63;;;21.03;;
29380;SDS011;16364;52.490;13.326;2022-12-18T06:46:31;62.27;;;22.63;;
29380;SDS011;16364;52.490;13.326;2022-12-18T06:48:57;49.67;;;19.43;;
29380;SDS011;16364;52.490;13.326;2022-12-18T06:51:23;73.27;;;22.50;;
29380;SDS011;16364;52.490;13.326;2022-12-18T06:53:48;65.63;;;23.00;;
29380;SDS011;16364;52.490;13.326;2022-12-18T06:56:14;61.90;;;21.73;;
29380;SDS011;16364;52.490;13.326;2022-12-18T06:58:40;57.80;;;21.60;;
29380;SDS011;16364;52.490;13.326;2022-12-18T07:01:06;54.87;;;19.80;;
29380;SDS011;16364;52.490;13.326;2022-12-18T07:03:31;70.10;;;22.60;;
29380;SDS011;16364;52.490;13.326;2022-12-18T07:05:56;61.40;;;20.80;;
29380;SDS011;16364;52.490;13.326;2022-12-18T07:08:22;49.33;;;20.07;;
29380;SDS011;16364;52.490;13.326;2022-12-18T07:10:47;67.10;;;22.77;;
29380;SDS011;16364;52.490;13.326;2022-12-18T07:13:14;58.40;;;21.83;;
29380;SDS011;16364;52.490;13.326;2022-12-18T07:15:39;61.73;;;20.70;;
29380;SDS011;16364;52.490;13.326;2022-12-18T07:18:04;60.50;;;24.37;;
29380;SDS011;16364;52.490;13.326;2022-12-18T07:20:30;67.50;;;22.83;;
29380;SDS011;16364;52.490;13.326;2022-12-18T07:22:55;54.00;;;19.00;;
29380;SDS011;16364;52.490;13.326;2022-12-18T07:25:20;68.13;;;20.80;;
29380;SDS011;16364;52.490;13.326;2022-12-18T07:27:46;60.73;;;20.93;;
29380;SDS011;16364;52.490;13.326;2022-12-18T07:30:11;54.30;;;21.10;;
29380;SDS011;16364;52.490;13.326;2022-12-18T07:32:36;54.90;;;19.20;;
29380;SDS011;16364;52.490;13.326;2022-12-18T07:35:02;50.20;;;19.00;;
29380;SDS011;16364;52.490;13.326;2022-12-18T07:37:27;45.67;;;18.10;;
29380;SDS011;16364;52.490;13.326;2022-12-18T07:39:52;46.03;;;18.43;;
29380;SDS011;16364;52.490;13.326;2022-12-18T07:42:17;44.97;;;20.47;;
29380;SDS011;16364;52.490;13.326;2022-12-18T07:44:55;48.20;;;19.70;;
29380;SDS011;16364;52.490;13.326;2022-12-18T07:47:20;50.37;;;17.90;;
29380;SDS011;16364;52.490;13.326;2022-12-18T07:49:45;37.47;;;14.67;;
29380;SDS011;16364;52.490;13.326;2022-12-18T07:52:11;40.10;;;14.60;;
29380;SDS011;16364;52.490;13.326;2022-12-18T07:54:37;46.90;;;16.47;;
29380;SDS011;16364;52.490;13.326;2022-12-18T07:57:02;41.93;;;16.00;;
29380;SDS011;16364;52.490;13.326;2022-12-18T07:59:27;36.60;;;16.03;;
29380;SDS011;16364;52.490;13.326;2022-12-18T08:01:53;35.80;;;15.43;;
29380;SDS011;16364;52.490;13.326;2022-12-18T08:04:18;35.93;;;13.73;;
29380;SDS011;16364;52.490;13.326;2022-12-18T08:06:43;41.23;;;17.80;;
29380;SDS011;16364;52.490;13.326;2022-12-18T08:09:09;46.33;;;16.93;;
29380;SDS011;16364;52.490;13.326;2022-12-18T08:11:34;41.20;;;16.30;;
29380;SDS011;16364;52.490;13.326;2022-12-18T08:13:59;57.43;;;19.70;;
29380;SDS011;16364;52.490;13.326;2022-12-18T08:16:25;45.43;;;17.20;;
29380;SDS011;16364;52.490;13.326;2022-12-18T08:18:51;44.97;;;17.83;;
29380;SDS011;16364;52.490;13.326;2022-12-18T08:21:18;48.53;;;18.17;;
29380;SDS011;16364;52.490;13.326;2022-12-18T08:23:43;44.87;;;15.60;;
29380;SDS011;16364;52.490;13.326;2022-12-18T08:26:12;49.63;;;17.67;;
29380;SDS011;16364;52.490;13.326;2022-12-18T08:28:38;55.97;;;18.57;;
29380;SDS011;16364;52.490;13.326;2022-12-18T08:31:03;32.33;;;15.07;;
29380;SDS011;16364;52.490;13.326;2022-12-18T08:33:28;34.57;;;15.00;;
29380;SDS011;16364;52.490;13.326;2022-12-18T08:35:54;33.50;;;12.80;;
29380;SDS011;16364;52.490;13.326;2022-12-18T08:38:19;44.97;;;16.23;;
29380;SDS011;16364;52.490;13.326;2022-12-18T08:40:44;49.10;;;16.07;;
29380;SDS011;16364;52.490;13.326;2022-12-18T08:43:10;38.20;;;14.70;;
29380;SDS011;16364;52.490;13.326;2022-12-18T08:45:54;45.87;;;15.70;;
29380;SDS011;16364;52.490;13.326;2022-12-18T08:48:20;41.00;;;16.40;;
29380;SDS011;16364;52.490;13.326;2022-12-18T08:50:55;44.70;;;15.17;;
29380;SDS011;16364;52.490;13.326;2022-12-18T08:53:20;47.47;;;17.63;;
29380;SDS011;16364;52.490;13.326;2022-12-18T08:55:46;43.70;;;16.83;;
29380;SDS011;16364;52.490;13.326;2022-12-18T08:58:11;44.83;;;16.13;;
29380;SDS011;16364;52.490;13.326;2022-12-18T09:00:36;37.80;;;16.50;;
29380;SDS011;16364;52.490;13.326;2022-12-18T09:03:01;44.13;;;16.33;;
29380;SDS011;16364;52.490;13.326;2022-12-18T09:05:27;35.53;;;13.70;;
29380;SDS011;16364;52.490;13.326;2022-12-18T09:07:52;42.63;;;17.50;;
29380;SDS011;16364;52.490;13.326;2022-12-18T09:10:17;39.60;;;14.40;;
29380;SDS011;16364;52.490;13.326;2022-12-18T09:12:42;40.90;;;15.57;;
29380;SDS011;16364;52.490;13.326;2022-12-18T09:15:08;44.90;;;18.53;;
29380;SDS011;16364;52.490;13.326;2022-12-18T09:17:33;34.47;;;14.40;;
29380;SDS011;16364;52.490;13.326;2022-12-18T09:19:58;38.83;;;15.53;;
29380;SDS011;16364;52.490;13.326;2022-12-18T09:22:23;37.43;;;15.10;;
29380;SDS011;16364;52.490;13.326;2022-12-18T09:24:49;36.43;;;15.03;;
29380;SDS011;16364;52.490;13.326;2022-12-18T09:27:14;36.37;;;15.37;;
29380;SDS011;16364;52.490;13.326;2022-12-18T09:29:39;35.17;;;14.87;;
29380;SDS011;16364;52.490;13.326;2022-12-18T09:32:05;42.80;;;14.70;;
29380;SDS011;16364;52.490;13.326;2022-12-18T09:34:30;41.43;;;14.90;;
29380;SDS011;16364;52.490;13.326;2022-12-18T09:36:55;33.77;;;14.50;;
29380;SDS011;16364;52.490;13.326;2022-12-18T09:39:20;35.83;;;14.87;;
29380;SDS011;16364;52.490;13.326;2022-12-18T09:41:47;36.03;;;17.33;;
29380;SDS011;16364;52.490;13.326;2022-12-18T09:49:21;40.83;;;14.90;;
29380;SDS011;16364;52.490;13.326;2022-12-18T09:51:55;34.20;;;14.70;;
29380;SDS011;16364;52.490;13.326;2022-12-18T09:54:33;41.13;;;16.80;;
29380;SDS011;16364;52.490;13.326;2022-12-18T09:57:00;35.40;;;15.77;;
29380;SDS011;16364;52.490;13.326;2022-12-18T09:59:33;37.90;;;15.50;;
29380;SDS011;16364;52.490;13.326;2022-12-18T10:01:59;39.80;;;14.73;;
29380;SDS011;16364;52.490;13.326;2022-12-18T10:04:24;28.77;;;15.23;;
29380;SDS011;16364;52.490;13.326;2022-12-18T10:07:02;33.23;;;14.40;;
29380;SDS011;16364;52.490;13.326;2022-12-18T10:09:41;39.83;;;14.00;;
29380;SDS011;16364;52.490;13.326;2022-12-18T10:19:59;37.67;;;15.90;;
29380;SDS011;16364;52.490;13.326;2022-12-18T10:24:56;36.97;;;14.57;;
29380;SDS011;16364;52.490;13.326;2022-12-18T10:27:25;36.10;;;16.40;;
29380;SDS011;16364;52.490;13.326;2022-12-18T10:29:51;38.00;;;16.80;;
29380;SDS011;16364;52.490;13.326;2022-12-18T10:32:18;31.87;;;15.40;;
29380;SDS011;16364;52.490;13.326;2022-12-18T10:34:45;37.73;;;18.20;;
29380;SDS011;16364;52.490;13.326;2022-12-18T10:37:12;40.73;;;16.40;;
29380;SDS011;16364;52.490;13.326;2022-12-18T10:39:40;42.13;;;15.80;;
29380;SDS011;16364;52.490;13.326;2022-12-18T10:42:09;33.40;;;14.80;;
29380;SDS011;16364;52.490;13.326;2022-12-18T10:44:35;39.57;;;14.47;;
29380;SDS011;16364;52.490;13.326;2022-12-18T10:47:03;33.00;;;15.00;;
29380;SDS011;16364;52.490;13.326;2022-12-18T10:49:30;36.03;;;16.47;;
29380;SDS011;16364;52.490;13.326;2022-12-18T10:54:45;39.50;;;16.70;;
29380;SDS011;16364;52.490;13.326;2022-12-18T10:57:29;39.20;;;15.00;;
29380;SDS011;16364;52.490;13.326;2022-12-18T10:59:55;37.90;;;14.87;;
29380;SDS011;16364;52.490;13.326;2022-12-18T11:02:25;36.87;;;15.60;;
29380;SDS011;16364;52.490;13.326;2022-12-18T11:04:51;32.10;;;15.77;;
29380;SDS011;16364;52.490;13.326;2022-12-18T11:07:17;40.97;;;16.63;;
29380;SDS011;16364;52.490;13.326;2022-12-18T11:09:42;36.83;;;15.57;;
29380;SDS011;16364;52.490;13.326;2022-12-18T11:14:42;41.27;;;16.90;;
29380;SDS011;16364;52.490;13.326;2022-12-18T11:17:29;46.03;;;16.60;;
29380;SDS011;16364;52.490;13.326;2022-12-18T11:19:58;37.87;;;16.47;;
29380;SDS011;16364;52.490;13.326;2022-12-18T11:24:52;34.10;;;14.60;;
29380;SDS011;16364;52.490;13.326;2022-12-18T11:27:18;32.67;;;14.03;;
29380;SDS011;16364;52.490;13.326;2022-12-18T11:29:43;34.87;;;15.77;;
29380;SDS011;16364;52.490;13.326;2022-12-18T11:35:04;37.33;;;15.23;;
29380;SDS011;16364;52.490;13.326;2022-12-18T11:37:35;37.43;;;14.57;;
29380;SDS011;16364;52.490;13.326;2022-12-18T11:40:14;35.83;;;15.60;;
29380;SDS011;16364;52.490;13.326;2022-12-18T11:45:28;34.13;;;15.37;;
29380;SDS011;16364;52.490;13.326;2022-12-18T11:47:56;35.40;;;13.60;;
29380;SDS011;16364;52.490;13.326;2022-12-18T11:50:33;35.47;;;15.30;;
29380;SDS011;16364;52.490;13.326;2022-12-18T11:53:02;43.07;;;15.90;;
29380;SDS011;16364;52.490;13.326;2022-12-18T12:00:24;30.60;;;13.57;;
29380;SDS011;16364;52.490;13.326;2022-12-18T12:07:55;32.10;;;15.70;;
29380;SDS011;16364;52.490;13.326;2022-12-18T12:20:33;40.93;;;13.33;;
29380;SDS011;16364;52.490;13.326;2022-12-18T12:38:26;33.73;;;14.33;;
29380;SDS011;16364;52.490;13.326;2022-12-18T12:40:59;26.50;;;14.30;;
29380;SDS011;16364;52.490;13.326;2022-12-18T12:43:37;31.47;;;14.50;;
29380;SDS011;16364;52.490;13.326;2022-12-18T12:46:05;28.40;;;14.13;;
29380;SDS011;16364;52.490;13.326;2022-12-18T12:51:00;28.47;;;14.00;;
29380;SDS011;16364;52.490;13.326;2022-12-18T12:53:28;30.93;;;13.70;;
29380;SDS011;16364;52.490;13.326;2022-12-18T12:55:55;26.17;;;14.17;;
29380;SDS011;16364;52.490;13.326;2022-12-18T12:58:29;26.87;;;13.70;;
29380;SDS011;16364;52.490;13.326;2022-12-18T13:06:04;30.87;;;14.47;;
29380;SDS011;16364;52.490;13.326;2022-12-18T13:08:50;29.73;;;14.40;;
29380;SDS011;16364;52.490;13.326;2022-12-18T13:14:33;35.70;;;15.80;;
29380;SDS011;16364;52.490;13.326;2022-12-18T13:17:15;34.73;;;14.37;;
29380;SDS011;16364;52.490;13.326;2022-12-18T13:19:41;29.30;;;13.97;;
29380;SDS011;16364;52.490;13.326;2022-12-18T13:22:12;32.20;;;15.90;;
29380;SDS011;16364;52.490;13.326;2022-12-18T13:24:45;43.10;;;18.10;;
29380;SDS011;16364;52.490;13.326;2022-12-18T13:29:55;36.97;;;15.30;;
29380;SDS011;16364;52.490;13.326;2022-12-18T13:32:24;36.23;;;16.50;;
29380;SDS011;16364;52.490;13.326;2022-12-18T13:35:33;36.80;;;16.70;;
29380;SDS011;16364;52.490;13.326;2022-12-18T13:37:39;28.53;;;15.30;;
29380;SDS011;16364;52.490;13.326;2022-12-18T13:40:24;44.50;;;16.20;;
29380;SDS011;16364;52.490;13.326;2022-12-18T13:42:50;30.43;;;15.90;;
29380;SDS011;16364;52.490;13.326;2022-12-18T13:45:38;32.00;;;14.27;;
29380;SDS011;16364;52.490;13.326;2022-12-18T13:48:10;34.47;;;15.87;;
29380;SDS011;16364;52.490;13.326;2022-12-18T13:50:39;32.93;;;16.10;;
29380;SDS011;16364;52.490;13.326;2022-12-18T13:53:04;43.43;;;17.63;;
29380;SDS011;16364;52.490;13.326;2022-12-18T13:55:30;40.30;;;17.20;;
29380;SDS011;16364;52.490;13.326;2022-12-18T13:58:04;43.53;;;20.30;;
29380;SDS011;16364;52.490;13.326;2022-12-18T14:00:30;43.97;;;19.43;;
29380;SDS011;16364;52.490;13.326;2022-12-18T14:02:56;35.53;;;16.87;;
29380;SDS011;16364;52.490;13.326;2022-12-18T14:07:47;43.57;;;17.33;;
29380;SDS011;16364;52.490;13.326;2022-12-18T14:10:13;34.40;;;17.17;;
29380;SDS011;16364;52.490;13.326;2022-12-18T14:12:40;35.47;;;16.13;;
29380;SDS011;16364;52.490;13.326;2022-12-18T14:17:50;39.23;;;17.77;;
29380;SDS011;16364;52.490;13.326;2022-12-18T14:20:15;40.13;;;20.47;;
29380;SDS011;16364;52.490;13.326;2022-12-18T14:22:45;37.53;;;19.00;;
29380;SDS011;16364;52.490;13.326;2022-12-18T14:25:22;41.13;;;19.50;;
29380;SDS011;16364;52.490;13.326;2022-12-18T14:28:11;41.63;;;18.73;;
29380;SDS011;16364;52.490;13.326;2022-12-18T14:30:44;42.50;;;19.27;;
29380;SDS011;16364;52.490;13.326;2022-12-18T14:35:43;49.10;;;22.43;;
29380;SDS011;16364;52.490;13.326;2022-12-18T14:38:24;56.60;;;22.53;;
29380;SDS011;16364;52.490;13.326;2022-12-18T14:40:53;52.73;;;21.97;;
29380;SDS011;16364;52.490;13.326;2022-12-18T14:43:19;57.57;;;21.77;;
29380;SDS011;16364;52.490;13.326;2022-12-18T14:45:45;50.03;;;22.07;;
29380;SDS011;16364;52.490;13.326;2022-12-18T14:50:36;43.83;;;20.40;;
29380;SDS011;16364;52.490;13.326;2022-12-18T14:53:01;41.10;;;19.27;;
29380;SDS011;16364;52.490;13.326;2022-12-18T14:55:27;36.73;;;17.40;;
29380;SDS011;16364;52.490;13.326;2022-12-18T14:57:53;39.93;;;18.57;;
29380;SDS011;16364;52.490;13.326;2022-12-18T15:00:20;38.80;;;19.40;;
29380;SDS011;16364;52.490;13.326;2022-12-18T15:02:47;34.60;;;17.50;;
29380;SDS011;16364;52.490;13.326;2022-12-18T15:07:42;35.00;;;17.77;;
29380;SDS011;16364;52.490;13.326;2022-12-18T15:10:16;35.07;;;17.87;;
29380;SDS011;16364;52.490;13.326;2022-12-18T15:12:45;41.47;;;18.23;;
29380;SDS011;16364;52.490;13.326;2022-12-18T15:15:45;35.50;;;18.17;;
29380;SDS011;16364;52.490;13.326;2022-12-18T15:20:30;36.27;;;19.03;;
29380;SDS011;16364;52.490;13.326;2022-12-18T15:22:56;25.80;;;15.07;;
29380;SDS011;16364;52.490;13.326;2022-12-18T15:27:56;27.97;;;16.03;;
29380;SDS011;16364;52.490;13.326;2022-12-18T15:30:22;30.70;;;15.53;;
29380;SDS011;16364;52.490;13.326;2022-12-18T15:32:47;23.80;;;15.47;;
29380;SDS011;16364;52.490;13.326;2022-12-18T15:35:21;30.63;;;16.10;;
29380;SDS011;16364;52.490;13.326;2022-12-18T15:37:46;31.00;;;17.77;;
29380;SDS011;16364;52.490;13.326;2022-12-18T15:40:16;23.60;;;14.73;;
29380;SDS011;16364;52.490;13.326;2022-12-18T15:42:42;30.40;;;15.13;;
29380;SDS011;16364;52.490;13.326;2022-12-18T15:45:26;31.50;;;14.30;;
29380;SDS011;16364;52.490;13.326;2022-12-18T15:47:51;24.73;;;15.57;;
29380;SDS011;16364;52.490;13.326;2022-12-18T15:50:17;31.30;;;13.67;;
29380;SDS011;16364;52.490;13.326;2022-12-18T15:52:43;27.47;;;14.17;;
29380;SDS011;16364;52.490;13.326;2022-12-18T15:55:12;26.13;;;15.20;;
29380;SDS011;16364;52.490;13.326;2022-12-18T15:57:56;21.63;;;12.87;;
29380;SDS011;16364;52.490;13.326;2022-12-18T16:00:22;34.83;;;17.43;;
29380;SDS011;16364;52.490;13.326;2022-12-18T16:02:47;26.43;;;14.30;;
29380;SDS011;16364;52.490;13.326;2022-12-18T16:05:16;32.97;;;14.90;;
29380;SDS011;16364;52.490;13.326;2022-12-18T16:07:42;33.60;;;15.43;;
29380;SDS011;16364;52.490;13.326;2022-12-18T16:10:07;22.27;;;14.93;;
29380;SDS011;16364;52.490;13.326;2022-12-18T16:12:32;31.43;;;17.70;;
29380;SDS011;16364;52.490;13.326;2022-12-18T16:14:58;30.53;;;15.27;;